sensor_id;sensor_type;location;lat;lon;timestamp;pressure;altitude;pressure_sealevel;temperature;humidity
41222;BME280;26952;42.884;23.918;2023-04-08T00:00:59;95878.13;;;3.98;100.00
41222;BME280;26952;42.884;23.918;2023-04-08T00:03:25;95932.94;;;4.30;100.00
41222;BME280;26952;42.884;23.918;2023-04-08T00:05:50;95921.13;;;4.05;100.00
41222;BME280;26952;42.884;23.918;2023-04-08T00:08:16;95938.78;;;4.03;100.00
41222;BME280;26952;42.884;23.918;2023-04-08T00:10:41;95922.28;;;3.82;100.00
41222;BME280;26952;42.884;23.918;2023-04-08T00:13:06;95933.34;;;3.65;100.00
41222;BME280;26952;42.884;23.918;2023-04-08T00:15:32;95940.72;;;3.60;100.00
41222;BME280;26952;42.884;23.918;2023-04-08T00:17:57;95944.53;;;3.47;100.00
41222;BME280;26952;42.884;23.918;2023-04-08T00:20:23;95933.59;;;3.42;100.00
41222;BME280;26952;42.884;23.918;2023-04-08T00:22:48;95919.63;;;3.32;100.00
41222;BME280;26952;42.884;23.918;2023-04-08T00:25:14;95945.13;;;3.39;100.00
41222;BME280;26952;42.884;23.918;2023-04-08T00:27:40;95961.59;;;3.51;100.00
41222;BME280;26952;42.884;23.918;2023-04-08T00:30:05;95935.56;;;3.29;100.00
41222;BME280;26952;42.884;23.918;2023-04-08T00:32:31;95916.28;;;3.09;100.00
41222;BME280;26952;42.884;23.918;2023-04-08T00:34:57;95949.03;;;3.24;100.00
41222;BME280;26952;42.884;23.918;2023-04-08T00:37:23;95954.09;;;3.05;100.00
41222;BME280;26952;42.884;23.918;2023-04-08T00:39:49;95915.94;;;2.82;100.00
41222;BME280;26952;42.884;23.918;2023-04-08T00:42:15;95958.50;;;3.05;100.00
41222;BME280;26952;42.884;23.918;2023-04-08T00:44:41;95939.41;;;2.93;100.00
41222;BME280;26952;42.884;23.918;2023-04-08T00:47:06;95958.22;;;2.76;100.00
41222;BME280;26952;42.884;23.918;2023-04-08T00:49:35;95953.97;;;2.64;100.00
41222;BME280;26952;42.884;23.918;2023-04-08T00:52:01;95936.50;;;2.64;100.00
41222;BME280;26952;42.884;23.918;2023-04-08T00:54:26;95943.53;;;2.64;100.00
41222;BME280;26952;42.884;23.918;2023-04-08T00:56:52;95926.44;;;2.60;100.00
41222;BME280;26952;42.884;23.918;2023-04-08T00:59:17;95942.69;;;2.63;100.00
41222;BME280;26952;42.884;23.918;2023-04-08T01:07:14;95959.63;;;2.80;100.00
41222;BME280;26952;42.884;23.918;2023-04-08T01:09:45;95920.91;;;2.74;100.00
41222;BME280;26952;42.884;23.918;2023-04-08T01:12:12;95927.41;;;2.91;100.00
41222;BME280;26952;42.884;23.918;2023-04-08T01:14:42;95953.09;;;3.17;100.00
41222;BME280;26952;42.884;23.918;2023-04-08T01:17:09;95945.97;;;3.19;100.00
41222;BME280;26952;42.884;23.918;2023-04-08T01:19:38;95924.59;;;3.14;100.00
41222;BME280;26952;42.884;23.918;2023-04-08T01:22:33;95946.34;;;3.35;100.00
41222;BME280;26952;42.884;23.918;2023-04-08T01:25:11;95968.38;;;3.53;100.00
41222;BME280;26952;42.884;23.918;2023-04-08T01:27:38;95951.47;;;3.57;100.00
41222;BME280;26952;42.884;23.918;2023-04-08T01:30:06;95946.03;;;3.49;100.00
41222;BME280;26952;42.884;23.918;2023-04-08T01:32:33;95935.38;;;3.41;100.00
41222;BME280;26952;42.884;23.918;2023-04-08T01:34:59;95946.47;;;3.54;100.00
41222;BME280;26952;42.884;23.918;2023-04-08T01:37:27;95963.50;;;3.49;100.00
41222;BME280;26952;42.884;23.918;2023-04-08T01:39:54;95931.94;;;3.41;100.00
41222;BME280;26952;42.884;23.918;2023-04-08T01:42:23;95962.50;;;3.61;100.00
41222;BME280;26952;42.884;23.918;2023-04-08T01:44:51;95960.59;;;3.63;100.00
41222;BME280;26952;42.884;23.918;2023-04-08T01:47:17;95952.22;;;3.69;100.00
41222;BME280;26952;42.884;23.918;2023-04-08T01:49:43;95953.75;;;3.71;100.00
41222;BME280;26952;42.884;23.918;2023-04-08T01:52:10;95972.19;;;3.90;100.00
41222;BME280;26952;42.884;23.918;2023-04-08T01:54:36;95960.13;;;3.78;100.00
41222;BME280;26952;42.884;23.918;2023-04-08T01:57:04;95908.97;;;3.44;100.00
41222;BME280;26952;42.884;23.918;2023-04-08T01:59:34;95955.59;;;3.80;100.00
41222;BME280;26952;42.884;23.918;2023-04-08T02:02:04;95974.28;;;3.96;100.00
41222;BME280;26952;42.884;23.918;2023-04-08T02:04:33;95962.00;;;3.87;100.00
41222;BME280;26952;42.884;23.918;2023-04-08T02:06:58;95967.81;;;4.00;100.00
41222;BME280;26952;42.884;23.918;2023-04-08T02:09:25;95970.75;;;4.07;100.00
41222;BME280;26952;42.884;23.918;2023-04-08T02:11:51;95969.69;;;4.09;100.00
41222;BME280;26952;42.884;23.918;2023-04-08T02:14:17;95986.28;;;4.19;100.00
41222;BME280;26952;42.884;23.918;2023-04-08T02:16:49;95965.78;;;4.04;100.00
41222;BME280;26952;42.884;23.918;2023-04-08T02:19:28;95972.56;;;4.06;100.00
41222;BME280;26952;42.884;23.918;2023-04-08T02:22:06;95986.16;;;4.00;100.00
41222;BME280;26952;42.884;23.918;2023-04-08T02:24:36;95956.22;;;3.93;100.00
41222;BME280;26952;42.884;23.918;2023-04-08T02:27:03;95948.81;;;3.98;100.00
41222;BME280;26952;42.884;23.918;2023-04-08T02:29:30;95991.53;;;4.19;100.00
41222;BME280;26952;42.884;23.918;2023-04-08T02:31:57;95963.03;;;4.05;100.00
41222;BME280;26952;42.884;23.918;2023-04-08T02:34:23;95962.34;;;4.03;100.00
41222;BME280;26952;42.884;23.918;2023-04-08T02:36:50;95970.38;;;4.11;100.00
41222;BME280;26952;42.884;23.918;2023-04-08T02:39:16;95973.56;;;4.15;100.00
41222;BME280;26952;42.884;23.918;2023-04-08T02:41:41;95976.06;;;4.16;100.00
41222;BME280;26952;42.884;23.918;2023-04-08T02:44:08;95979.81;;;4.23;100.00
41222;BME280;26952;42.884;23.918;2023-04-08T02:46:34;95972.47;;;4.17;100.00
41222;BME280;26952;42.884;23.918;2023-04-08T02:48:59;95966.63;;;4.04;100.00
41222;BME280;26952;42.884;23.918;2023-04-08T02:51:25;95980.06;;;4.20;100.00
41222;BME280;26952;42.884;23.918;2023-04-08T02:53:50;95964.34;;;4.20;100.00
41222;BME280;26952;42.884;23.918;2023-04-08T02:56:15;95968.38;;;4.24;100.00
41222;BME280;26952;42.884;23.918;2023-04-08T02:58:41;95970.69;;;4.18;100.00
41222;BME280;26952;42.884;23.918;2023-04-08T03:01:07;95967.81;;;4.21;100.00
41222;BME280;26952;42.884;23.918;2023-04-08T03:03:33;95962.53;;;4.11;100.00
41222;BME280;26952;42.884;23.918;2023-04-08T03:05:58;95945.19;;;3.90;100.00
41222;BME280;26952;42.884;23.918;2023-04-08T03:08:24;95970.88;;;4.05;100.00
41222;BME280;26952;42.884;23.918;2023-04-08T03:10:50;95970.56;;;4.19;100.00
41222;BME280;26952;42.884;23.918;2023-04-08T03:13:16;95992.56;;;4.38;100.00
41222;BME280;26952;42.884;23.918;2023-04-08T03:15:41;95966.47;;;4.36;100.00
41222;BME280;26952;42.884;23.918;2023-04-08T03:18:07;95965.66;;;4.36;100.00
41222;BME280;26952;42.884;23.918;2023-04-08T03:20:33;95966.78;;;4.43;100.00
41222;BME280;26952;42.884;23.918;2023-04-08T03:22:58;95944.69;;;4.36;100.00
41222;BME280;26952;42.884;23.918;2023-04-08T03:25:24;95913.22;;;4.16;100.00
41222;BME280;26952;42.884;23.918;2023-04-08T03:27:50;95986.31;;;4.69;100.00
41222;BME280;26952;42.884;23.918;2023-04-08T03:30:15;95973.91;;;4.71;100.00
41222;BME280;26952;42.884;23.918;2023-04-08T03:32:40;95962.56;;;4.61;100.00
41222;BME280;26952;42.884;23.918;2023-04-08T03:35:06;95982.06;;;4.77;100.00
41222;BME280;26952;42.884;23.918;2023-04-08T03:37:32;95974.28;;;4.57;100.00
41222;BME280;26952;42.884;23.918;2023-04-08T03:39:57;95989.47;;;4.63;100.00
41222;BME280;26952;42.884;23.918;2023-04-08T03:42:23;95990.03;;;4.57;100.00
41222;BME280;26952;42.884;23.918;2023-04-08T03:44:48;95979.81;;;4.54;100.00
41222;BME280;26952;42.884;23.918;2023-04-08T03:47:13;95973.84;;;4.52;100.00
41222;BME280;26952;42.884;23.918;2023-04-08T03:49:40;95918.34;;;3.97;100.00
41222;BME280;26952;42.884;23.918;2023-04-08T03:52:05;95986.66;;;4.45;100.00
41222;BME280;26952;42.884;23.918;2023-04-08T03:54:31;95983.63;;;4.50;100.00
41222;BME280;26952;42.884;23.918;2023-04-08T03:56:56;95993.88;;;4.62;100.00
41222;BME280;26952;42.884;23.918;2023-04-08T03:59:22;95977.84;;;4.56;100.00
41222;BME280;26952;42.884;23.918;2023-04-08T04:01:47;95980.25;;;4.59;100.00
41222;BME280;26952;42.884;23.918;2023-04-08T04:04:13;95968.47;;;4.53;100.00
41222;BME280;26952;42.884;23.918;2023-04-08T04:06:38;95983.44;;;4.72;100.00
41222;BME280;26952;42.884;23.918;2023-04-08T04:09:04;95981.63;;;4.72;100.00
41222;BME280;26952;42.884;23.918;2023-04-08T04:11:29;95985.38;;;4.70;100.00
41222;BME280;26952;42.884;23.918;2023-04-08T04:13:55;95954.69;;;4.61;100.00
41222;BME280;26952;42.884;23.918;2023-04-08T04:16:20;95989.94;;;4.87;100.00
41222;BME280;26952;42.884;23.918;2023-04-08T04:18:45;95998.63;;;4.78;100.00
41222;BME280;26952;42.884;23.918;2023-04-08T04:21:11;95966.03;;;4.61;100.00
41222;BME280;26952;42.884;23.918;2023-04-08T04:23:36;95988.91;;;4.59;100.00
41222;BME280;26952;42.884;23.918;2023-04-08T04:26:07;95989.19;;;4.56;100.00
41222;BME280;26952;42.884;23.918;2023-04-08T04:28:33;95939.28;;;4.28;100.00
41222;BME280;26952;42.884;23.918;2023-04-08T04:30:58;96011.31;;;4.73;100.00
41222;BME280;26952;42.884;23.918;2023-04-08T04:33:23;96010.44;;;4.63;100.00
41222;BME280;26952;42.884;23.918;2023-04-08T04:35:49;96008.09;;;4.60;100.00
41222;BME280;26952;42.884;23.918;2023-04-08T04:38:15;96002.41;;;4.55;100.00
41222;BME280;26952;42.884;23.918;2023-04-08T04:40:40;95998.81;;;4.56;100.00
41222;BME280;26952;42.884;23.918;2023-04-08T04:43:06;95997.47;;;4.61;100.00
41222;BME280;26952;42.884;23.918;2023-04-08T04:45:31;96009.41;;;4.75;100.00
41222;BME280;26952;42.884;23.918;2023-04-08T04:47:56;95966.88;;;4.62;100.00
41222;BME280;26952;42.884;23.918;2023-04-08T04:50:22;95986.47;;;4.77;100.00
41222;BME280;26952;42.884;23.918;2023-04-08T04:52:47;96005.84;;;4.95;100.00
41222;BME280;26952;42.884;23.918;2023-04-08T04:55:13;95981.81;;;4.90;100.00
41222;BME280;26952;42.884;23.918;2023-04-08T04:57:40;96006.69;;;5.05;100.00
41222;BME280;26952;42.884;23.918;2023-04-08T05:00:06;96004.22;;;5.03;100.00
41222;BME280;26952;42.884;23.918;2023-04-08T05:02:32;96003.59;;;4.81;100.00
41222;BME280;26952;42.884;23.918;2023-04-08T05:04:58;96004.75;;;4.88;100.00
41222;BME280;26952;42.884;23.918;2023-04-08T05:07:23;96025.75;;;4.97;100.00
41222;BME280;26952;42.884;23.918;2023-04-08T05:09:49;96018.16;;;4.94;100.00
41222;BME280;26952;42.884;23.918;2023-04-08T05:12:14;96028.38;;;5.07;100.00
41222;BME280;26952;42.884;23.918;2023-04-08T05:14:40;96032.66;;;5.17;100.00
41222;BME280;26952;42.884;23.918;2023-04-08T05:17:06;96036.28;;;5.16;100.00
41222;BME280;26952;42.884;23.918;2023-04-08T05:19:31;96013.63;;;5.15;100.00
41222;BME280;26952;42.884;23.918;2023-04-08T05:21:57;96021.53;;;5.25;100.00
41222;BME280;26952;42.884;23.918;2023-04-08T05:24:22;96009.91;;;5.27;100.00
41222;BME280;26952;42.884;23.918;2023-04-08T05:26:47;96034.38;;;5.47;100.00
41222;BME280;26952;42.884;23.918;2023-04-08T05:29:16;96035.50;;;5.54;100.00
41222;BME280;26952;42.884;23.918;2023-04-08T05:31:43;96023.47;;;5.61;100.00
41222;BME280;26952;42.884;23.918;2023-04-08T05:34:09;96021.66;;;5.61;100.00
41222;BME280;26952;42.884;23.918;2023-04-08T05:36:35;96012.84;;;5.72;100.00
41222;BME280;26952;42.884;23.918;2023-04-08T05:39:00;96034.00;;;5.99;100.00
41222;BME280;26952;42.884;23.918;2023-04-08T05:41:26;95998.75;;;5.83;100.00
41222;BME280;26952;42.884;23.918;2023-04-08T05:43:51;96011.72;;;6.03;100.00
41222;BME280;26952;42.884;23.918;2023-04-08T05:46:16;96014.88;;;6.16;98.51
41222;BME280;26952;42.884;23.918;2023-04-08T05:48:42;96026.06;;;6.18;98.08
41222;BME280;26952;42.884;23.918;2023-04-08T05:51:12;95954.78;;;5.75;98.31
41222;BME280;26952;42.884;23.918;2023-04-08T05:53:38;96025.53;;;6.05;100.00
41222;BME280;26952;42.884;23.918;2023-04-08T05:56:03;96010.66;;;5.87;100.00
41222;BME280;26952;42.884;23.918;2023-04-08T05:58:29;96014.50;;;5.92;98.69
41222;BME280;26952;42.884;23.918;2023-04-08T06:00:54;95989.91;;;5.93;98.83
41222;BME280;26952;42.884;23.918;2023-04-08T06:03:20;95999.72;;;5.91;96.63
41222;BME280;26952;42.884;23.918;2023-04-08T06:05:45;96008.88;;;6.33;97.50
41222;BME280;26952;42.884;23.918;2023-04-08T06:08:10;95983.91;;;6.56;97.32
41222;BME280;26952;42.884;23.918;2023-04-08T06:10:36;95977.09;;;6.90;92.28
41222;BME280;26952;42.884;23.918;2023-04-08T06:13:01;95978.47;;;7.30;89.62
41222;BME280;26952;42.884;23.918;2023-04-08T06:15:27;95958.22;;;7.65;84.72
41222;BME280;26952;42.884;23.918;2023-04-08T06:17:52;95980.53;;;8.31;79.37
41222;BME280;26952;42.884;23.918;2023-04-08T06:20:17;95971.59;;;8.58;72.92
41222;BME280;26952;42.884;23.918;2023-04-08T06:22:43;95974.41;;;8.31;75.11
41222;BME280;26952;42.884;23.918;2023-04-08T06:25:08;95963.72;;;8.15;74.65
41222;BME280;26952;42.884;23.918;2023-04-08T06:27:34;95961.16;;;8.49;76.12
41222;BME280;26952;42.884;23.918;2023-04-08T06:29:59;95978.31;;;8.86;73.58
41222;BME280;26952;42.884;23.918;2023-04-08T06:32:24;95984.53;;;9.11;73.06
41222;BME280;26952;42.884;23.918;2023-04-08T06:34:50;95969.22;;;9.22;70.56
41222;BME280;26952;42.884;23.918;2023-04-08T06:37:15;95983.13;;;9.56;71.60
41222;BME280;26952;42.884;23.918;2023-04-08T06:39:41;95976.53;;;9.76;69.15
41222;BME280;26952;42.884;23.918;2023-04-08T06:42:06;95987.13;;;10.01;67.88
41222;BME280;26952;42.884;23.918;2023-04-08T06:44:32;95987.78;;;10.27;64.25
41222;BME280;26952;42.884;23.918;2023-04-08T06:46:57;95981.53;;;10.12;59.23
41222;BME280;26952;42.884;23.918;2023-04-08T06:49:22;95974.91;;;10.24;58.01
41222;BME280;26952;42.884;23.918;2023-04-08T06:51:48;95973.56;;;9.88;56.97
41222;BME280;26952;42.884;23.918;2023-04-08T06:54:14;95959.69;;;9.77;57.83
41222;BME280;26952;42.884;23.918;2023-04-08T06:56:39;95997.84;;;10.07;56.16
41222;BME280;26952;42.884;23.918;2023-04-08T06:59:04;96005.47;;;9.94;55.96
41222;BME280;26952;42.884;23.918;2023-04-08T07:01:30;96009.25;;;9.75;57.58
41222;BME280;26952;42.884;23.918;2023-04-08T07:03:58;96016.53;;;9.81;58.04
41222;BME280;26952;42.884;23.918;2023-04-08T07:06:23;96010.59;;;10.04;56.46
41222;BME280;26952;42.884;23.918;2023-04-08T07:08:49;96010.59;;;9.96;57.69
41222;BME280;26952;42.884;23.918;2023-04-08T07:11:14;96014.56;;;9.83;56.97
41222;BME280;26952;42.884;23.918;2023-04-08T07:13:40;96015.69;;;9.81;55.17
41222;BME280;26952;42.884;23.918;2023-04-08T07:16:05;95990.91;;;9.58;57.22
41222;BME280;26952;42.884;23.918;2023-04-08T07:18:31;96022.00;;;9.96;59.11
41222;BME280;26952;42.884;23.918;2023-04-08T07:20:57;96021.16;;;9.88;59.61
41222;BME280;26952;42.884;23.918;2023-04-08T07:23:22;95999.56;;;10.08;61.61
41222;BME280;26952;42.884;23.918;2023-04-08T07:25:47;96017.91;;;10.18;62.90
41222;BME280;26952;42.884;23.918;2023-04-08T07:28:13;96022.66;;;9.82;64.30
41222;BME280;26952;42.884;23.918;2023-04-08T07:30:38;96021.47;;;9.76;62.90
41222;BME280;26952;42.884;23.918;2023-04-08T07:33:04;96012.69;;;9.60;60.43
41222;BME280;26952;42.884;23.918;2023-04-08T07:35:29;95982.09;;;9.33;59.56
41222;BME280;26952;42.884;23.918;2023-04-08T07:37:56;96028.13;;;9.97;59.00
41222;BME280;26952;42.884;23.918;2023-04-08T07:40:22;96029.13;;;10.44;60.14
41222;BME280;26952;42.884;23.918;2023-04-08T07:42:47;95955.34;;;10.57;58.83
41222;BME280;26952;42.884;23.918;2023-04-08T07:45:13;96039.50;;;11.24;55.06
41222;BME280;26952;42.884;23.918;2023-04-08T07:47:39;96011.50;;;10.83;52.85
41222;BME280;26952;42.884;23.918;2023-04-08T07:50:05;96039.44;;;10.93;55.19
41222;BME280;26952;42.884;23.918;2023-04-08T07:52:31;96000.28;;;10.81;54.16
41222;BME280;26952;42.884;23.918;2023-04-08T07:54:56;96039.28;;;10.95;54.85
41222;BME280;26952;42.884;23.918;2023-04-08T07:57:21;96050.75;;;10.79;54.72
41222;BME280;26952;42.884;23.918;2023-04-08T07:59:47;96045.31;;;10.41;56.42
41222;BME280;26952;42.884;23.918;2023-04-08T08:02:12;96057.16;;;10.85;56.00
41222;BME280;26952;42.884;23.918;2023-04-08T08:04:38;96052.59;;;11.17;54.09
41222;BME280;26952;42.884;23.918;2023-04-08T08:07:03;96032.38;;;11.25;52.41
41222;BME280;26952;42.884;23.918;2023-04-08T08:09:29;96045.66;;;11.55;51.88
41222;BME280;26952;42.884;23.918;2023-04-08T08:11:54;96033.72;;;11.51;51.27
41222;BME280;26952;42.884;23.918;2023-04-08T08:14:19;96045.66;;;11.55;49.48
41222;BME280;26952;42.884;23.918;2023-04-08T08:16:46;96042.53;;;11.82;50.44
41222;BME280;26952;42.884;23.918;2023-04-08T08:19:12;95977.31;;;11.73;50.80
41222;BME280;26952;42.884;23.918;2023-04-08T08:21:39;96024.81;;;12.05;49.82
41222;BME280;26952;42.884;23.918;2023-04-08T08:24:04;96040.91;;;12.26;50.65
41222;BME280;26952;42.884;23.918;2023-04-08T08:26:30;96051.59;;;12.55;48.89
41222;BME280;26952;42.884;23.918;2023-04-08T08:28:56;96061.50;;;12.62;50.48
41222;BME280;26952;42.884;23.918;2023-04-08T08:31:21;96040.50;;;12.15;49.02
41222;BME280;26952;42.884;23.918;2023-04-08T08:33:46;96047.50;;;11.85;49.46
41222;BME280;26952;42.884;23.918;2023-04-08T08:36:12;96038.06;;;12.05;49.06
41222;BME280;26952;42.884;23.918;2023-04-08T08:38:38;96045.72;;;12.23;49.80
41222;BME280;26952;42.884;23.918;2023-04-08T08:41:03;96060.81;;;12.45;50.80
41222;BME280;26952;42.884;23.918;2023-04-08T08:43:29;96054.59;;;11.93;50.14
41222;BME280;26952;42.884;23.918;2023-04-08T08:45:58;96055.38;;;11.63;52.05
41222;BME280;26952;42.884;23.918;2023-04-08T08:48:24;96057.28;;;11.85;52.09
41222;BME280;26952;42.884;23.918;2023-04-08T08:50:49;96044.28;;;11.59;51.17
41222;BME280;26952;42.884;23.918;2023-04-08T08:53:15;96048.94;;;11.18;50.43
41222;BME280;26952;42.884;23.918;2023-04-08T08:55:40;96071.34;;;11.85;51.39
41222;BME280;26952;42.884;23.918;2023-04-08T08:58:06;96065.56;;;12.35;50.80
41222;BME280;26952;42.884;23.918;2023-04-08T09:00:35;96067.75;;;13.06;49.09
41222;BME280;26952;42.884;23.918;2023-04-08T09:03:16;96057.69;;;12.79;48.45
41222;BME280;26952;42.884;23.918;2023-04-08T09:05:53;96043.59;;;12.93;47.94
41222;BME280;26952;42.884;23.918;2023-04-08T09:08:33;96065.84;;;11.64;49.36
41222;BME280;26952;42.884;23.918;2023-04-08T09:11:25;96068.03;;;12.36;49.33
41222;BME280;26952;42.884;23.918;2023-04-08T09:13:51;96069.75;;;12.67;48.32
41222;BME280;26952;42.884;23.918;2023-04-08T09:16:17;96055.13;;;12.71;48.13
41222;BME280;26952;42.884;23.918;2023-04-08T09:18:44;96068.50;;;12.77;46.98
41222;BME280;26952;42.884;23.918;2023-04-08T09:21:12;96066.09;;;13.05;47.72
41222;BME280;26952;42.884;23.918;2023-04-08T09:26:26;96049.19;;;13.56;46.94
41222;BME280;26952;42.884;23.918;2023-04-08T09:28:59;96063.13;;;14.08;46.43
41222;BME280;26952;42.884;23.918;2023-04-08T09:31:27;96052.06;;;14.47;44.16
41222;BME280;26952;42.884;23.918;2023-04-08T09:33:57;96047.94;;;14.44;44.79
41222;BME280;26952;42.884;23.918;2023-04-08T09:36:24;96058.22;;;14.47;44.60
41222;BME280;26952;42.884;23.918;2023-04-08T09:38:51;96065.13;;;14.42;45.31
41222;BME280;26952;42.884;23.918;2023-04-08T09:41:18;96046.69;;;14.05;46.19
41222;BME280;26952;42.884;23.918;2023-04-08T09:43:52;96057.50;;;13.82;46.11
41222;BME280;26952;42.884;23.918;2023-04-08T09:49:33;96053.63;;;12.68;48.16
41222;BME280;26952;42.884;23.918;2023-04-08T09:52:09;96068.06;;;12.88;49.37
41222;BME280;26952;42.884;23.918;2023-04-08T09:54:51;96067.19;;;13.10;49.29
41222;BME280;26952;42.884;23.918;2023-04-08T09:57:39;96061.13;;;13.60;48.92
41222;BME280;26952;42.884;23.918;2023-04-08T10:00:11;96043.81;;;13.20;48.67
41222;BME280;26952;42.884;23.918;2023-04-08T10:03:13;96055.47;;;13.05;48.93
41222;BME280;26952;42.884;23.918;2023-04-08T10:05:40;96045.50;;;12.32;51.08
41222;BME280;26952;42.884;23.918;2023-04-08T10:08:08;96047.97;;;12.34;52.40
41222;BME280;26952;42.884;23.918;2023-04-08T10:10:35;96058.13;;;12.08;52.58
41222;BME280;26952;42.884;23.918;2023-04-08T10:13:03;96030.00;;;11.76;54.43
41222;BME280;26952;42.884;23.918;2023-04-08T10:15:30;95990.16;;;11.23;55.03
41222;BME280;26952;42.884;23.918;2023-04-08T10:23:08;96045.56;;;12.62;58.43
41222;BME280;26952;42.884;23.918;2023-04-08T10:25:42;96046.25;;;12.93;55.00
41222;BME280;26952;42.884;23.918;2023-04-08T10:30:46;96024.16;;;12.92;59.08
41222;BME280;26952;42.884;23.918;2023-04-08T10:35:58;96031.53;;;13.34;63.13
41222;BME280;26952;42.884;23.918;2023-04-08T10:38:23;96049.09;;;13.64;65.94
41222;BME280;26952;42.884;23.918;2023-04-08T10:40:49;96046.38;;;13.43;64.61
41222;BME280;26952;42.884;23.918;2023-04-08T10:43:15;96039.81;;;13.10;60.90
41222;BME280;26952;42.884;23.918;2023-04-08T10:45:42;96031.19;;;13.08;62.46
41222;BME280;26952;42.884;23.918;2023-04-08T10:50:36;96040.13;;;13.36;65.76
41222;BME280;26952;42.884;23.918;2023-04-08T10:53:02;96044.09;;;13.40;69.40
41222;BME280;26952;42.884;23.918;2023-04-08T10:55:27;96038.97;;;13.24;75.67
41222;BME280;26952;42.884;23.918;2023-04-08T10:57:53;96056.38;;;13.26;75.46
41222;BME280;26952;42.884;23.918;2023-04-08T11:00:39;96051.50;;;13.30;74.71
41222;BME280;26952;42.884;23.918;2023-04-08T11:03:09;96037.38;;;13.29;73.15
41222;BME280;26952;42.884;23.918;2023-04-08T11:05:34;96047.78;;;13.39;70.97
41222;BME280;26952;42.884;23.918;2023-04-08T11:08:04;96013.13;;;13.18;62.35
41222;BME280;26952;42.884;23.918;2023-04-08T11:10:32;96026.59;;;13.31;64.18
41222;BME280;26952;42.884;23.918;2023-04-08T11:13:01;96035.84;;;13.20;64.50
41222;BME280;26952;42.884;23.918;2023-04-08T11:15:29;96021.41;;;13.44;57.01
41222;BME280;26952;42.884;23.918;2023-04-08T11:17:54;96019.75;;;13.57;52.70
41222;BME280;26952;42.884;23.918;2023-04-08T11:20:20;96011.75;;;13.93;55.89
41222;BME280;26952;42.884;23.918;2023-04-08T11:22:47;96020.56;;;14.29;51.25
41222;BME280;26952;42.884;23.918;2023-04-08T11:25:12;96017.88;;;14.29;51.29
41222;BME280;26952;42.884;23.918;2023-04-08T11:27:38;96013.47;;;14.01;49.27
41222;BME280;26952;42.884;23.918;2023-04-08T11:30:06;95986.22;;;13.77;49.07
41222;BME280;26952;42.884;23.918;2023-04-08T11:32:33;96017.94;;;13.58;49.23
41222;BME280;26952;42.884;23.918;2023-04-08T11:35:00;96002.72;;;13.52;49.03
41222;BME280;26952;42.884;23.918;2023-04-08T11:37:26;95995.66;;;13.80;51.08
41222;BME280;26952;42.884;23.918;2023-04-08T11:39:57;95989.63;;;13.92;50.99
41222;BME280;26952;42.884;23.918;2023-04-08T11:42:31;96007.66;;;13.90;48.48
41222;BME280;26952;42.884;23.918;2023-04-08T11:44:57;95995.16;;;13.05;49.22
41222;BME280;26952;42.884;23.918;2023-04-08T11:47:34;96019.41;;;12.88;49.91
41222;BME280;26952;42.884;23.918;2023-04-08T11:50:01;96005.06;;;12.59;52.43
41222;BME280;26952;42.884;23.918;2023-04-08T11:52:47;95977.47;;;12.17;54.02
41222;BME280;26952;42.884;23.918;2023-04-08T11:57:49;96025.09;;;12.10;53.91
41222;BME280;26952;42.884;23.918;2023-04-08T12:00:16;96009.88;;;11.82;51.89
41222;BME280;26952;42.884;23.918;2023-04-08T12:02:41;96000.09;;;11.82;53.99
41222;BME280;26952;42.884;23.918;2023-04-08T12:05:07;95975.06;;;11.54;54.76
41222;BME280;26952;42.884;23.918;2023-04-08T12:07:32;96005.09;;;11.16;53.87
41222;BME280;26952;42.884;23.918;2023-04-08T12:09:57;95989.16;;;11.24;56.65
41222;BME280;26952;42.884;23.918;2023-04-08T12:12:23;95977.59;;;11.17;56.20
41222;BME280;26952;42.884;23.918;2023-04-08T12:14:48;96012.06;;;11.09;56.47
41222;BME280;26952;42.884;23.918;2023-04-08T12:17:14;95962.00;;;10.83;53.94
41222;BME280;26952;42.884;23.918;2023-04-08T12:19:40;95997.97;;;11.16;58.11
41222;BME280;26952;42.884;23.918;2023-04-08T12:22:05;95981.88;;;11.26;55.52
41222;BME280;26952;42.884;23.918;2023-04-08T12:24:30;95979.66;;;11.38;55.31
41222;BME280;26952;42.884;23.918;2023-04-08T12:26:56;95978.59;;;11.16;53.16
41222;BME280;26952;42.884;23.918;2023-04-08T12:29:21;95997.22;;;11.61;53.84
41222;BME280;26952;42.884;23.918;2023-04-08T12:31:47;95958.75;;;11.73;51.79
41222;BME280;26952;42.884;23.918;2023-04-08T12:34:12;95970.50;;;11.93;50.99
41222;BME280;26952;42.884;23.918;2023-04-08T12:36:38;95979.34;;;12.08;49.84
41222;BME280;26952;42.884;23.918;2023-04-08T12:39:03;95978.72;;;12.21;51.12
41222;BME280;26952;42.884;23.918;2023-04-08T12:41:28;95974.84;;;12.31;49.78
41222;BME280;26952;42.884;23.918;2023-04-08T12:43:54;95960.75;;;12.45;51.09
41222;BME280;26952;42.884;23.918;2023-04-08T12:46:19;95950.53;;;12.72;49.61
41222;BME280;26952;42.884;23.918;2023-04-08T12:48:45;95887.53;;;12.36;52.37
41222;BME280;26952;42.884;23.918;2023-04-08T12:51:12;95948.69;;;12.57;51.50
41222;BME280;26952;42.884;23.918;2023-04-08T12:53:38;95945.50;;;12.10;50.22
41222;BME280;26952;42.884;23.918;2023-04-08T12:56:03;95959.81;;;12.38;50.54
41222;BME280;26952;42.884;23.918;2023-04-08T12:58:29;95944.28;;;12.65;50.62
41222;BME280;26952;42.884;23.918;2023-04-08T13:00:54;95896.75;;;12.55;48.80
41222;BME280;26952;42.884;23.918;2023-04-08T13:03:20;95954.09;;;12.79;50.44
41222;BME280;26952;42.884;23.918;2023-04-08T13:05:45;95919.00;;;12.39;50.75
41222;BME280;26952;42.884;23.918;2023-04-08T13:08:11;95937.47;;;12.18;52.26
41222;BME280;26952;42.884;23.918;2023-04-08T13:10:36;95919.69;;;12.04;59.40
41222;BME280;26952;42.884;23.918;2023-04-08T13:13:02;95946.41;;;12.17;60.57
41222;BME280;26952;42.884;23.918;2023-04-08T13:15:28;95944.03;;;12.08;63.26